sensor_id;sensor_type;location;lat;lon;timestamp;temperature;humidity
26595;DHT22;14238;49.496;8.154;2023-05-10T00:01:55;13.20;99.90
26595;DHT22;14238;49.496;8.154;2023-05-10T00:04:20;13.20;99.90
26595;DHT22;14238;49.496;8.154;2023-05-10T00:06:46;13.20;99.90
26595;DHT22;14238;49.496;8.154;2023-05-10T00:09:13;13.10;99.90
26595;DHT22;14238;49.496;8.154;2023-05-10T00:11:39;13.10;99.90
26595;DHT22;14238;49.496;8.154;2023-05-10T00:14:04;13.10;99.90
26595;DHT22;14238;49.496;8.154;2023-05-10T00:16:30;13.00;99.90
26595;DHT22;14238;49.496;8.154;2023-05-10T00:18:55;13.00;99.90
26595;DHT22;14238;49.496;8.154;2023-05-10T00:21:21;13.00;99.90
26595;DHT22;14238;49.496;8.154;2023-05-10T00:23:46;13.00;99.90
26595;DHT22;14238;49.496;8.154;2023-05-10T00:26:12;12.90;99.90
26595;DHT22;14238;49.496;8.154;2023-05-10T00:28:37;12.90;99.90
26595;DHT22;14238;49.496;8.154;2023-05-10T00:31:03;12.90;99.90
26595;DHT22;14238;49.496;8.154;2023-05-10T00:33:28;12.90;99.90
26595;DHT22;14238;49.496;8.154;2023-05-10T00:35:54;12.80;99.90
26595;DHT22;14238;49.496;8.154;2023-05-10T00:38:19;12.80;99.90
26595;DHT22;14238;49.496;8.154;2023-05-10T00:40:45;12.80;99.90
26595;DHT22;14238;49.496;8.154;2023-05-10T00:43:11;12.80;99.90
26595;DHT22;14238;49.496;8.154;2023-05-10T00:45:36;12.80;99.90
26595;DHT22;14238;49.496;8.154;2023-05-10T00:48:03;12.90;99.90
26595;DHT22;14238;49.496;8.154;2023-05-10T00:50:30;12.80;99.90
26595;DHT22;14238;49.496;8.154;2023-05-10T00:52:56;12.90;99.90
26595;DHT22;14238;49.496;8.154;2023-05-10T00:55:23;12.80;99.90
26595;DHT22;14238;49.496;8.154;2023-05-10T00:57:48;12.80;99.90
26595;DHT22;14238;49.496;8.154;2023-05-10T01:00:14;12.80;99.90
26595;DHT22;14238;49.496;8.154;2023-05-10T01:02:44;12.80;99.90
26595;DHT22;14238;49.496;8.154;2023-05-10T01:05:10;12.80;99.90
26595;DHT22;14238;49.496;8.154;2023-05-10T01:07:35;12.70;99.90
26595;DHT22;14238;49.496;8.154;2023-05-10T01:10:01;12.70;99.90
26595;DHT22;14238;49.496;8.154;2023-05-10T01:12:26;12.80;99.90
26595;DHT22;14238;49.496;8.154;2023-05-10T01:14:52;12.80;99.90
26595;DHT22;14238;49.496;8.154;2023-05-10T01:17:19;12.80;99.90
26595;DHT22;14238;49.496;8.154;2023-05-10T01:19:45;12.80;99.90
26595;DHT22;14238;49.496;8.154;2023-05-10T01:25:53;12.80;99.90
26595;DHT22;14238;49.496;8.154;2023-05-10T01:28:46;12.80;99.90
26595;DHT22;14238;49.496;8.154;2023-05-10T01:34:25;12.80;99.90
26595;DHT22;14238;49.496;8.154;2023-05-10T01:36:58;12.90;99.90
26595;DHT22;14238;49.496;8.154;2023-05-10T01:39:43;12.90;99.90
26595;DHT22;14238;49.496;8.154;2023-05-10T01:42:19;12.80;99.90
26595;DHT22;14238;49.496;8.154;2023-05-10T01:44:52;12.80;99.90
26595;DHT22;14238;49.496;8.154;2023-05-10T01:47:35;12.80;99.90
26595;DHT22;14238;49.496;8.154;2023-05-10T01:50:04;12.80;99.90
26595;DHT22;14238;49.496;8.154;2023-05-10T01:52:34;12.80;99.90
26595;DHT22;14238;49.496;8.154;2023-05-10T01:55:05;12.90;99.90
26595;DHT22;14238;49.496;8.154;2023-05-10T01:57:36;12.90;99.90
26595;DHT22;14238;49.496;8.154;2023-05-10T02:00:05;12.90;99.90
26595;DHT22;14238;49.496;8.154;2023-05-10T02:02:36;12.90;99.90
26595;DHT22;14238;49.496;8.154;2023-05-10T02:05:05;12.90;99.90
26595;DHT22;14238;49.496;8.154;2023-05-10T02:07:32;12.90;99.90
26595;DHT22;14238;49.496;8.154;2023-05-10T02:09:59;12.90;99.90
26595;DHT22;14238;49.496;8.154;2023-05-10T02:12:25;13.00;99.90
26595;DHT22;14238;49.496;8.154;2023-05-10T02:14:53;13.00;99.90
26595;DHT22;14238;49.496;8.154;2023-05-10T02:17:19;13.00;99.90
26595;DHT22;14238;49.496;8.154;2023-05-10T02:19:47;12.90;99.90
26595;DHT22;14238;49.496;8.154;2023-05-10T02:22:13;12.90;99.90
26595;DHT22;14238;49.496;8.154;2023-05-10T02:24:40;12.90;99.90
26595;DHT22;14238;49.496;8.154;2023-05-10T02:27:06;12.90;99.90
26595;DHT22;14238;49.496;8.154;2023-05-10T02:29:33;12.90;99.90
26595;DHT22;14238;49.496;8.154;2023-05-10T02:31:59;12.90;99.90
26595;DHT22;14238;49.496;8.154;2023-05-10T02:34:26;12.90;99.90
26595;DHT22;14238;49.496;8.154;2023-05-10T02:36:53;12.90;99.90
26595;DHT22;14238;49.496;8.154;2023-05-10T02:39:20;12.80;99.90
26595;DHT22;14238;49.496;8.154;2023-05-10T02:41:46;12.80;99.90
26595;DHT22;14238;49.496;8.154;2023-05-10T02:44:15;12.90;99.90
26595;DHT22;14238;49.496;8.154;2023-05-10T02:46:41;12.80;99.90
26595;DHT22;14238;49.496;8.154;2023-05-10T02:49:07;12.80;99.90
26595;DHT22;14238;49.496;8.154;2023-05-10T02:51:35;12.80;99.90
26595;DHT22;14238;49.496;8.154;2023-05-10T02:54:08;12.80;99.90
26595;DHT22;14238;49.496;8.154;2023-05-10T02:56:36;12.70;99.90
26595;DHT22;14238;49.496;8.154;2023-05-10T02:59:05;12.70;99.90
26595;DHT22;14238;49.496;8.154;2023-05-10T03:01:30;12.70;99.90
26595;DHT22;14238;49.496;8.154;2023-05-10T03:03:56;12.70;99.90
26595;DHT22;14238;49.496;8.154;2023-05-10T03:06:21;12.70;99.90
26595;DHT22;14238;49.496;8.154;2023-05-10T03:08:47;12.70;99.90
26595;DHT22;14238;49.496;8.154;2023-05-10T03:11:32;12.70;99.90
26595;DHT22;14238;49.496;8.154;2023-05-10T03:17:04;12.60;99.90
26595;DHT22;14238;49.496;8.154;2023-05-10T03:19:34;12.60;99.90
26595;DHT22;14238;49.496;8.154;2023-05-10T03:22:05;12.60;99.90
26595;DHT22;14238;49.496;8.154;2023-05-10T03:24:34;12.60;99.90
26595;DHT22;14238;49.496;8.154;2023-05-10T03:27:01;12.60;99.90
26595;DHT22;14238;49.496;8.154;2023-05-10T03:29:28;12.60;99.90
26595;DHT22;14238;49.496;8.154;2023-05-10T03:31:54;12.50;99.90
26595;DHT22;14238;49.496;8.154;2023-05-10T03:34:24;12.50;99.90
26595;DHT22;14238;49.496;8.154;2023-05-10T03:36:49;12.50;99.90
26595;DHT22;14238;49.496;8.154;2023-05-10T03:39:15;12.50;99.90
26595;DHT22;14238;49.496;8.154;2023-05-10T03:41:40;12.50;99.90
26595;DHT22;14238;49.496;8.154;2023-05-10T03:44:06;12.50;99.90
26595;DHT22;14238;49.496;8.154;2023-05-10T03:46:32;12.50;99.90
26595;DHT22;14238;49.496;8.154;2023-05-10T03:48:57;12.50;99.90
26595;DHT22;14238;49.496;8.154;2023-05-10T03:51:23;12.50;99.90
26595;DHT22;14238;49.496;8.154;2023-05-10T03:53:50;12.50;99.90
26595;DHT22;14238;49.496;8.154;2023-05-10T03:56:16;12.50;99.90
26595;DHT22;14238;49.496;8.154;2023-05-10T03:58:41;12.50;99.90
26595;DHT22;14238;49.496;8.154;2023-05-10T04:01:07;12.50;99.90
26595;DHT22;14238;49.496;8.154;2023-05-10T04:03:32;12.50;99.90
26595;DHT22;14238;49.496;8.154;2023-05-10T04:05:59;12.50;99.90
26595;DHT22;14238;49.496;8.154;2023-05-10T04:08:25;12.60;99.90
26595;DHT22;14238;49.496;8.154;2023-05-10T04:10:51;12.50;99.90
26595;DHT22;14238;49.496;8.154;2023-05-10T04:13:16;12.50;99.90
26595;DHT22;14238;49.496;8.154;2023-05-10T04:15:42;12.60;99.90
26595;DHT22;14238;49.496;8.154;2023-05-10T04:18:08;12.60;99.90
26595;DHT22;14238;49.496;8.154;2023-05-10T04:20:33;12.50;99.90
26595;DHT22;14238;49.496;8.154;2023-05-10T04:22:59;12.50;99.90
26595;DHT22;14238;49.496;8.154;2023-05-10T04:25:25;12.60;99.90
26595;DHT22;14238;49.496;8.154;2023-05-10T04:27:50;12.60;99.90
26595;DHT22;14238;49.496;8.154;2023-05-10T04:30:17;12.60;99.90
26595;DHT22;14238;49.496;8.154;2023-05-10T04:32:42;12.60;99.90
26595;DHT22;14238;49.496;8.154;2023-05-10T04:35:08;12.60;99.90
26595;DHT22;14238;49.496;8.154;2023-05-10T04:37:35;12.60;99.90
26595;DHT22;14238;49.496;8.154;2023-05-10T04:40:02;12.70;99.90
26595;DHT22;14238;49.496;8.154;2023-05-10T04:42:28;12.70;99.90
26595;DHT22;14238;49.496;8.154;2023-05-10T04:44:54;12.70;99.90
26595;DHT22;14238;49.496;8.154;2023-05-10T04:47:20;12.70;99.90
26595;DHT22;14238;49.496;8.154;2023-05-10T04:49:45;12.70;99.90
26595;DHT22;14238;49.496;8.154;2023-05-10T04:52:11;12.80;99.90
26595;DHT22;14238;49.496;8.154;2023-05-10T04:54:36;12.70;99.90
26595;DHT22;14238;49.496;8.154;2023-05-10T04:57:02;12.70;99.90
26595;DHT22;14238;49.496;8.154;2023-05-10T04:59:28;12.80;99.90
26595;DHT22;14238;49.496;8.154;2023-05-10T05:01:53;12.70;99.90
26595;DHT22;14238;49.496;8.154;2023-05-10T05:04:19;12.70;99.90
26595;DHT22;14238;49.496;8.154;2023-05-10T05:06:44;12.80;99.90
26595;DHT22;14238;49.496;8.154;2023-05-10T05:09:10;12.80;99.90
26595;DHT22;14238;49.496;8.154;2023-05-10T05:11:35;12.80;99.90
26595;DHT22;14238;49.496;8.154;2023-05-10T05:14:01;12.80;99.90
26595;DHT22;14238;49.496;8.154;2023-05-10T05:16:26;12.90;99.90
26595;DHT22;14238;49.496;8.154;2023-05-10T05:18:53;12.90;99.90
26595;DHT22;14238;49.496;8.154;2023-05-10T05:21:19;13.00;99.90
26595;DHT22;14238;49.496;8.154;2023-05-10T05:23:45;13.00;99.90
26595;DHT22;14238;49.496;8.154;2023-05-10T05:26:11;13.10;99.90
26595;DHT22;14238;49.496;8.154;2023-05-10T05:28:38;13.20;99.90
26595;DHT22;14238;49.496;8.154;2023-05-10T05:31:07;13.20;99.90
26595;DHT22;14238;49.496;8.154;2023-05-10T05:33:36;13.20;99.90
26595;DHT22;14238;49.496;8.154;2023-05-10T05:36:03;13.20;99.90
26595;DHT22;14238;49.496;8.154;2023-05-10T05:38:29;13.20;99.90
26595;DHT22;14238;49.496;8.154;2023-05-10T05:40:54;13.30;99.90
26595;DHT22;14238;49.496;8.154;2023-05-10T05:43:20;13.40;99.90
26595;DHT22;14238;49.496;8.154;2023-05-10T05:45:49;13.40;99.90
26595;DHT22;14238;49.496;8.154;2023-05-10T05:48:14;13.50;99.90
26595;DHT22;14238;49.496;8.154;2023-05-10T05:50:40;13.50;99.90
26595;DHT22;14238;49.496;8.154;2023-05-10T05:53:05;13.50;99.90
26595;DHT22;14238;49.496;8.154;2023-05-10T05:55:31;13.50;99.90
26595;DHT22;14238;49.496;8.154;2023-05-10T05:57:57;13.60;99.90
26595;DHT22;14238;49.496;8.154;2023-05-10T06:00:23;13.60;99.90
26595;DHT22;14238;49.496;8.154;2023-05-10T06:02:49;13.60;99.90
26595;DHT22;14238;49.496;8.154;2023-05-10T06:05:14;13.70;99.90
26595;DHT22;14238;49.496;8.154;2023-05-10T06:07:40;13.80;99.90
26595;DHT22;14238;49.496;8.154;2023-05-10T06:10:08;13.80;99.90
26595;DHT22;14238;49.496;8.154;2023-05-10T06:12:34;13.80;99.90
26595;DHT22;14238;49.496;8.154;2023-05-10T06:14:59;13.90;99.90
26595;DHT22;14238;49.496;8.154;2023-05-10T06:17:25;13.90;99.90
26595;DHT22;14238;49.496;8.154;2023-05-10T06:19:50;13.90;99.90
26595;DHT22;14238;49.496;8.154;2023-05-10T06:22:16;13.90;99.90
26595;DHT22;14238;49.496;8.154;2023-05-10T06:24:41;14.10;99.90
26595;DHT22;14238;49.496;8.154;2023-05-10T06:27:07;14.20;99.90
26595;DHT22;14238;49.496;8.154;2023-05-10T06:29:33;14.10;99.90
26595;DHT22;14238;49.496;8.154;2023-05-10T06:31:58;14.00;99.90
26595;DHT22;14238;49.496;8.154;2023-05-10T06:34:24;14.00;99.90
26595;DHT22;14238;49.496;8.154;2023-05-10T06:36:50;14.00;99.90
26595;DHT22;14238;49.496;8.154;2023-05-10T06:39:15;13.90;99.90
26595;DHT22;14238;49.496;8.154;2023-05-10T06:41:41;13.70;99.90
26595;DHT22;14238;49.496;8.154;2023-05-10T06:44:07;13.70;99.90
26595;DHT22;14238;49.496;8.154;2023-05-10T06:46:32;13.80;99.90
26595;DHT22;14238;49.496;8.154;2023-05-10T06:48:58;13.70;99.90
26595;DHT22;14238;49.496;8.154;2023-05-10T06:51:23;13.80;99.90
26595;DHT22;14238;49.496;8.154;2023-05-10T06:53:49;13.90;99.90
26595;DHT22;14238;49.496;8.154;2023-05-10T06:56:14;14.00;99.90
26595;DHT22;14238;49.496;8.154;2023-05-10T06:58:40;13.90;99.90
26595;DHT22;14238;49.496;8.154;2023-05-10T07:01:05;13.90;99.90
26595;DHT22;14238;49.496;8.154;2023-05-10T07:03:31;13.90;99.90
26595;DHT22;14238;49.496;8.154;2023-05-10T07:06:04;13.90;99.90
26595;DHT22;14238;49.496;8.154;2023-05-10T07:08:31;13.90;99.90
26595;DHT22;14238;49.496;8.154;2023-05-10T07:11:03;14.00;99.90
26595;DHT22;14238;49.496;8.154;2023-05-10T07:13:30;14.10;99.90
26595;DHT22;14238;49.496;8.154;2023-05-10T07:15:57;14.30;99.90
26595;DHT22;14238;49.496;8.154;2023-05-10T07:18:23;14.30;99.90
26595;DHT22;14238;49.496;8.154;2023-05-10T07:20:48;14.30;99.90
26595;DHT22;14238;49.496;8.154;2023-05-10T07:23:14;14.20;99.90
26595;DHT22;14238;49.496;8.154;2023-05-10T07:25:39;14.30;99.90
26595;DHT22;14238;49.496;8.154;2023-05-10T07:28:05;14.40;99.90
26595;DHT22;14238;49.496;8.154;2023-05-10T07:30:31;14.50;99.90
26595;DHT22;14238;49.496;8.154;2023-05-10T07:32:56;14.60;99.90
26595;DHT22;14238;49.496;8.154;2023-05-10T07:35:22;14.60;99.90
26595;DHT22;14238;49.496;8.154;2023-05-10T07:37:47;14.80;99.90
26595;DHT22;14238;49.496;8.154;2023-05-10T07:40:13;15.10;99.90
26595;DHT22;14238;49.496;8.154;2023-05-10T07:42:38;15.20;99.90
26595;DHT22;14238;49.496;8.154;2023-05-10T07:45:04;15.20;99.90
26595;DHT22;14238;49.496;8.154;2023-05-10T07:47:30;15.30;99.90
26595;DHT22;14238;49.496;8.154;2023-05-10T07:49:55;15.40;99.90
26595;DHT22;14238;49.496;8.154;2023-05-10T07:52:21;15.60;99.90
26595;DHT22;14238;49.496;8.154;2023-05-10T07:54:46;15.60;99.90
26595;DHT22;14238;49.496;8.154;2023-05-10T07:57:12;15.30;99.90
26595;DHT22;14238;49.496;8.154;2023-05-10T07:59:41;15.20;99.90
26595;DHT22;14238;49.496;8.154;2023-05-10T08:02:07;15.00;99.90
26595;DHT22;14238;49.496;8.154;2023-05-10T08:04:32;14.80;99.90
26595;DHT22;14238;49.496;8.154;2023-05-10T08:06:58;14.60;99.90
26595;DHT22;14238;49.496;8.154;2023-05-10T08:09:23;14.60;99.90
26595;DHT22;14238;49.496;8.154;2023-05-10T08:11:49;14.50;99.90
26595;DHT22;14238;49.496;8.154;2023-05-10T08:14:16;14.40;99.90
26595;DHT22;14238;49.496;8.154;2023-05-10T08:16:41;14.50;99.90
26595;DHT22;14238;49.496;8.154;2023-05-10T08:19:07;14.60;99.90
26595;DHT22;14238;49.496;8.154;2023-05-10T08:21:33;14.50;99.90
26595;DHT22;14238;49.496;8.154;2023-05-10T08:23:58;14.80;99.90
26595;DHT22;14238;49.496;8.154;2023-05-10T08:26:24;14.90;99.90
26595;DHT22;14238;49.496;8.154;2023-05-10T08:28:50;15.10;99.90
26595;DHT22;14238;49.496;8.154;2023-05-10T08:31:15;15.20;99.90
26595;DHT22;14238;49.496;8.154;2023-05-10T08:33:41;15.50;99.90
26595;DHT22;14238;49.496;8.154;2023-05-10T08:36:06;16.00;99.90
26595;DHT22;14238;49.496;8.154;2023-05-10T08:38:32;16.40;99.90
26595;DHT22;14238;49.496;8.154;2023-05-10T08:40:58;16.20;99.90
26595;DHT22;14238;49.496;8.154;2023-05-10T08:43:28;16.10;99.90
26595;DHT22;14238;49.496;8.154;2023-05-10T08:46:00;16.10;99.90
26595;DHT22;14238;49.496;8.154;2023-05-10T08:48:29;15.80;99.90
26595;DHT22;14238;49.496;8.154;2023-05-10T08:50:58;15.80;99.90
26595;DHT22;14238;49.496;8.154;2023-05-10T08:53:24;15.80;99.90
26595;DHT22;14238;49.496;8.154;2023-05-10T08:55:52;15.80;99.90
26595;DHT22;14238;49.496;8.154;2023-05-10T08:58:19;15.80;99.90
26595;DHT22;14238;49.496;8.154;2023-05-10T09:00:46;15.70;99.90
26595;DHT22;14238;49.496;8.154;2023-05-10T09:03:12;15.80;99.90
26595;DHT22;14238;49.496;8.154;2023-05-10T09:05:38;15.70;99.90
26595;DHT22;14238;49.496;8.154;2023-05-10T09:08:04;15.60;99.90
26595;DHT22;14238;49.496;8.154;2023-05-10T09:10:31;15.30;99.90
26595;DHT22;14238;49.496;8.154;2023-05-10T09:12:56;15.30;99.90
26595;DHT22;14238;49.496;8.154;2023-05-10T09:15:22;15.20;99.90
26595;DHT22;14238;49.496;8.154;2023-05-10T09:17:49;15.30;99.90
26595;DHT22;14238;49.496;8.154;2023-05-10T09:20:15;15.20;99.90
26595;DHT22;14238;49.496;8.154;2023-05-10T09:22:42;15.50;99.90
26595;DHT22;14238;49.496;8.154;2023-05-10T09:25:15;15.70;99.90
26595;DHT22;14238;49.496;8.154;2023-05-10T09:27:43;15.90;99.90
26595;DHT22;14238;49.496;8.154;2023-05-10T09:30:10;15.80;99.90
26595;DHT22;14238;49.496;8.154;2023-05-10T09:32:45;15.90;99.90
26595;DHT22;14238;49.496;8.154;2023-05-10T09:35:17;15.60;99.90
26595;DHT22;14238;49.496;8.154;2023-05-10T09:37:45;15.40;99.90
26595;DHT22;14238;49.496;8.154;2023-05-10T09:40:18;14.90;99.90
26595;DHT22;14238;49.496;8.154;2023-05-10T09:43:03;14.40;99.90
26595;DHT22;14238;49.496;8.154;2023-05-10T09:45:31;14.30;99.90
26595;DHT22;14238;49.496;8.154;2023-05-10T09:47:57;14.00;99.90
26595;DHT22;14238;49.496;8.154;2023-05-10T09:50:24;14.00;99.90
26595;DHT22;14238;49.496;8.154;2023-05-10T09:53:00;13.90;99.90
26595;DHT22;14238;49.496;8.154;2023-05-10T09:55:41;14.10;99.90
26595;DHT22;14238;49.496;8.154;2023-05-10T09:58:08;14.20;99.90
26595;DHT22;14238;49.496;8.154;2023-05-10T10:00:39;14.80;99.90
26595;DHT22;14238;49.496;8.154;2023-05-10T10:03:04;15.70;99.90
26595;DHT22;14238;49.496;8.154;2023-05-10T10:05:32;16.00;99.90
26595;DHT22;14238;49.496;8.154;2023-05-10T10:07:59;16.30;99.90
26595;DHT22;14238;49.496;8.154;2023-05-10T10:10:26;16.70;99.90
26595;DHT22;14238;49.496;8.154;2023-05-10T10:12:52;16.70;99.90
26595;DHT22;14238;49.496;8.154;2023-05-10T10:15:18;16.50;99.90
26595;DHT22;14238;49.496;8.154;2023-05-10T10:17:44;16.90;99.90
26595;DHT22;14238;49.496;8.154;2023-05-10T10:20:09;16.70;99.90
26595;DHT22;14238;49.496;8.154;2023-05-10T10:22:37;16.80;99.90
26595;DHT22;14238;49.496;8.154;2023-05-10T10:25:04;16.80;99.90
26595;DHT22;14238;49.496;8.154;2023-05-10T10:27:43;16.70;99.90
26595;DHT22;14238;49.496;8.154;2023-05-10T10:30:41;16.40;99.90
26595;DHT22;14238;49.496;8.154;2023-05-10T10:35:57;15.70;99.90
26595;DHT22;14238;49.496;8.154;2023-05-10T10:38:23;15.60;99.90
26595;DHT22;14238;49.496;8.154;2023-05-10T10:41:02;15.40;99.90
26595;DHT22;14238;49.496;8.154;2023-05-10T10:43:28;15.20;99.90
26595;DHT22;14238;49.496;8.154;2023-05-10T10:46:14;15.30;99.90
26595;DHT22;14238;49.496;8.154;2023-05-10T10:49:08;15.50;99.90
26595;DHT22;14238;49.496;8.154;2023-05-10T10:51:37;15.70;99.90
26595;DHT22;14238;49.496;8.154;2023-05-10T10:54:10;16.20;99.90
26595;DHT22;14238;49.496;8.154;2023-05-10T10:56:35;16.80;99.90
26595;DHT22;14238;49.496;8.154;2023-05-10T10:59:01;17.20;99.90
26595;DHT22;14238;49.496;8.154;2023-05-10T11:01:33;16.80;99.90
26595;DHT22;14238;49.496;8.154;2023-05-10T11:06:32;17.50;99.90
26595;DHT22;14238;49.496;8.154;2023-05-10T11:08:59;17.50;99.90
26595;DHT22;14238;49.496;8.154;2023-05-10T11:11:24;17.30;99.90
26595;DHT22;14238;49.496;8.154;2023-05-10T11:13:51;17.40;99.90
26595;DHT22;14238;49.496;8.154;2023-05-10T11:16:21;17.20;99.90
26595;DHT22;14238;49.496;8.154;2023-05-10T11:18:58;17.10;99.90
26595;DHT22;14238;49.496;8.154;2023-05-10T11:21:24;17.20;99.90
26595;DHT22;14238;49.496;8.154;2023-05-10T11:23:55;17.40;99.90
26595;DHT22;14238;49.496;8.154;2023-05-10T11:26:25;17.20;99.90
26595;DHT22;14238;49.496;8.154;2023-05-10T11:28:53;16.70;99.90
26595;DHT22;14238;49.496;8.154;2023-05-10T11:31:20;17.00;99.90
26595;DHT22;14238;49.496;8.154;2023-05-10T11:33:57;16.90;99.90
26595;DHT22;14238;49.496;8.154;2023-05-10T11:36:28;16.60;99.90
26595;DHT22;14238;49.496;8.154;2023-05-10T11:38:55;16.60;99.90
26595;DHT22;14238;49.496;8.154;2023-05-10T11:41:22;16.90;99.90
26595;DHT22;14238;49.496;8.154;2023-05-10T11:43:52;16.90;99.90
26595;DHT22;14238;49.496;8.154;2023-05-10T11:46:19;17.10;99.90
26595;DHT22;14238;49.496;8.154;2023-05-10T11:48:49;17.10;99.90
26595;DHT22;14238;49.496;8.154;2023-05-10T11:51:23;17.00;99.90
26595;DHT22;14238;49.496;8.154;2023-05-10T11:53:50;17.00;99.90
26595;DHT22;14238;49.496;8.154;2023-05-10T11:56:17;17.00;99.90
26595;DHT22;14238;49.496;8.154;2023-05-10T11:58:43;16.90;99.90
26595;DHT22;14238;49.496;8.154;2023-05-10T12:01:09;16.60;99.90
26595;DHT22;14238;49.496;8.154;2023-05-10T12:03:36;16.60;99.90
26595;DHT22;14238;49.496;8.154;2023-05-10T12:06:02;16.60;99.90
26595;DHT22;14238;49.496;8.154;2023-05-10T12:08:29;16.60;99.90
26595;DHT22;14238;49.496;8.154;2023-05-10T12:11:07;16.40;99.90
26595;DHT22;14238;49.496;8.154;2023-05-10T12:13:38;16.50;99.90
26595;DHT22;14238;49.496;8.154;2023-05-10T12:16:19;16.60;99.90
26595;DHT22;14238;49.496;8.154;2023-05-10T12:18:48;16.80;99.90
26595;DHT22;14238;49.496;8.154;2023-05-10T12:21:14;16.90;99.90
26595;DHT22;14238;49.496;8.154;2023-05-10T12:23:40;17.20;99.90
26595;DHT22;14238;49.496;8.154;2023-05-10T12:26:08;17.10;99.90
26595;DHT22;14238;49.496;8.154;2023-05-10T12:28:34;17.10;99.90
26595;DHT22;14238;49.496;8.154;2023-05-10T12:31:01;17.40;99.90
26595;DHT22;14238;49.496;8.154;2023-05-10T12:33:38;18.20;99.90
26595;DHT22;14238;49.496;8.154;2023-05-10T12:36:05;19.30;99.90
26595;DHT22;14238;49.496;8.154;2023-05-10T12:38:35;20.00;99.90
26595;DHT22;14238;49.496;8.154;2023-05-10T12:41:04;20.00;99.90
26595;DHT22;14238;49.496;8.154;2023-05-10T12:43:30;20.10;99.90
26595;DHT22;14238;49.496;8.154;2023-05-10T12:45:56;19.80;99.90
26595;DHT22;14238;49.496;8.154;2023-05-10T12:48:22;20.10;99.90
26595;DHT22;14238;49.496;8.154;2023-05-10T12:50:48;19.30;99.90
26595;DHT22;14238;49.496;8.154;2023-05-10T12:53:14;18.80;99.90
26595;DHT22;14238;49.496;8.154;2023-05-10T12:55:41;19.50;99.90
26595;DHT22;14238;49.496;8.154;2023-05-10T12:58:07;19.30;99.90
26595;DHT22;14238;49.496;8.154;2023-05-10T13:00:32;20.00;99.90
26595;DHT22;14238;49.496;8.154;2023-05-10T13:02:58;19.90;99.90
26595;DHT22;14238;49.496;8.154;2023-05-10T13:05:23;19.10;99.90
26595;DHT22;14238;49.496;8.154;2023-05-10T13:07:49;18.50;99.90
26595;DHT22;14238;49.496;8.154;2023-05-10T13:10:15;18.40;99.90
26595;DHT22;14238;49.496;8.154;2023-05-10T13:12:41;19.10;99.90
26595;DHT22;14238;49.496;8.154;2023-05-10T13:15:07;19.30;99.90
26595;DHT22;14238;49.496;8.154;2023-05-10T13:17:32;19.10;99.90
26595;DHT22;14238;49.496;8.154;2023-05-10T13:19:58;18.90;99.90
26595;DHT22;14238;49.496;8.154;2023-05-10T13:22:23;19.00;99.90
26595;DHT22;14238;49.496;8.154;2023-05-10T13:24:49;18.40;99.90
26595;DHT22;14238;49.496;8.154;2023-05-10T13:27:15;18.80;99.90
26595;DHT22;14238;49.496;8.154;2023-05-10T13:29:40;18.80;99.90
26595;DHT22;14238;49.496;8.154;2023-05-10T13:32:06;18.70;99.90
26595;DHT22;14238;49.496;8.154;2023-05-10T13:34:31;18.80;99.90
26595;DHT22;14238;49.496;8.154;2023-05-10T13:36:57;18.50;99.90
26595;DHT22;14238;49.496;8.154;2023-05-10T13:39:23;18.20;99.90
26595;DHT22;14238;49.496;8.154;2023-05-10T13:41:48;18.20;99.90
26595;DHT22;14238;49.496;8.154;2023-05-10T13:46:41;18.10;99.90
26595;DHT22;14238;49.496;8.154;2023-05-10T13:49:08;18.40;99.90
26595;DHT22;14238;49.496;8.154;2023-05-10T13:51:34;18.60;99.90
26595;DHT22;14238;49.496;8.154;2023-05-10T13:54:01;18.40;99.90
26595;DHT22;14238;49.496;8.154;2023-05-10T13:56:27;18.30;99.90
26595;DHT22;14238;49.496;8.154;2023-05-10T13:58:52;18.10;99.90
26595;DHT22;14238;49.496;8.154;2023-05-10T14:01:18;18.50;99.90
26595;DHT22;14238;49.496;8.154;2023-05-10T14:03:43;18.50;99.90
26595;DHT22;14238;49.496;8.154;2023-05-10T14:06:09;18.70;99.90
26595;DHT22;14238;49.496;8.154;2023-05-10T14:08:35;18.90;99.90
26595;DHT22;14238;49.496;8.154;2023-05-10T14:11:02;19.30;99.90
26595;DHT22;14238;49.496;8.154;2023-05-10T14:13:28;19.70;99.70
26595;DHT22;14238;49.496;8.154;2023-05-10T14:15:54;19.20;99.90
26595;DHT22;14238;49.496;8.154;2023-05-10T14:18:19;19.00;99.90
26595;DHT22;14238;49.496;8.154;2023-05-10T14:20:45;19.90;99.90
26595;DHT22;14238;49.496;8.154;2023-05-10T14:23:11;20.40;99.90
26595;DHT22;14238;49.496;8.154;2023-05-10T14:25:37;20.90;99.90
26595;DHT22;14238;49.496;8.154;2023-05-10T14:28:03;20.50;98.50
26595;DHT22;14238;49.496;8.154;2023-05-10T14:30:28;20.70;98.10
26595;DHT22;14238;49.496;8.154;2023-05-10T14:32:54;20.90;97.80
26595;DHT22;14238;49.496;8.154;2023-05-10T14:35:20;21.20;98.80
26595;DHT22;14238;49.496;8.154;2023-05-10T14:37:46;21.10;97.50
26595;DHT22;14238;49.496;8.154;2023-05-10T14:40:12;20.30;97.10
26595;DHT22;14238;49.496;8.154;2023-05-10T14:42:38;19.50;97.50
26595;DHT22;14238;49.496;8.154;2023-05-10T14:45:04;19.40;98.20
26595;DHT22;14238;49.496;8.154;2023-05-10T14:47:29;19.80;98.30
26595;DHT22;14238;49.496;8.154;2023-05-10T14:49:55;19.60;97.20
26595;DHT22;14238;49.496;8.154;2023-05-10T14:52:21;20.10;97.50
26595;DHT22;14238;49.496;8.154;2023-05-10T14:54:46;20.10;97.10
26595;DHT22;14238;49.496;8.154;2023-05-10T14:57:12;20.80;97.90
26595;DHT22;14238;49.496;8.154;2023-05-10T14:59:38;21.10;98.90
26595;DHT22;14238;49.496;8.154;2023-05-10T15:02:03;20.70;96.90
26595;DHT22;14238;49.496;8.154;2023-05-10T15:04:29;20.50;96.70
26595;DHT22;14238;49.496;8.154;2023-05-10T15:06:55;20.90;97.00
26595;DHT22;14238;49.496;8.154;2023-05-10T15:09:25;21.10;97.10
26595;DHT22;14238;49.496;8.154;2023-05-10T15:11:50;21.60;98.00
26595;DHT22;14238;49.496;8.154;2023-05-10T15:14:16;22.00;95.50
26595;DHT22;14238;49.496;8.154;2023-05-10T15:16:41;22.00;96.80
26595;DHT22;14238;49.496;8.154;2023-05-10T15:19:07;21.80;95.30
26595;DHT22;14238;49.496;8.154;2023-05-10T15:21:32;21.80;95.30
26595;DHT22;14238;49.496;8.154;2023-05-10T15:24:07;21.20;95.10
26595;DHT22;14238;49.496;8.154;2023-05-10T15:26:33;21.10;94.50
26595;DHT22;14238;49.496;8.154;2023-05-10T15:28:58;21.00;95.80
26595;DHT22;14238;49.496;8.154;2023-05-10T15:31:24;21.00;95.60
26595;DHT22;14238;49.496;8.154;2023-05-10T15:33:49;21.00;96.50
26595;DHT22;14238;49.496;8.154;2023-05-10T15:36:15;20.30;95.80
26595;DHT22;14238;49.496;8.154;2023-05-10T15:38:43;20.50;97.20
26595;DHT22;14238;49.496;8.154;2023-05-10T15:41:08;20.20;95.70
26595;DHT22;14238;49.496;8.154;2023-05-10T15:43:34;20.40;95.90
26595;DHT22;14238;49.496;8.154;2023-05-10T15:45:59;20.80;95.60
26595;DHT22;14238;49.496;8.154;2023-05-10T15:48:25;21.00;96.10